sensor_id;sensor_type;location;lat;lon;timestamp;temperature;humidity
21834;DHT22;11079;51.092;3.458;2023-01-28T00:00:25;5.80;99.90
21834;DHT22;11079;51.092;3.458;2023-01-28T00:02:50;6.00;99.90
21834;DHT22;11079;51.092;3.458;2023-01-28T00:05:16;5.90;99.90
21834;DHT22;11079;51.092;3.458;2023-01-28T00:07:42;6.00;99.90
21834;DHT22;11079;51.092;3.458;2023-01-28T00:10:08;5.90;99.90
21834;DHT22;11079;51.092;3.458;2023-01-28T00:12:34;5.90;99.90
21834;DHT22;11079;51.092;3.458;2023-01-28T00:14:59;5.90;99.90
21834;DHT22;11079;51.092;3.458;2023-01-28T00:17:25;5.80;99.90
21834;DHT22;11079;51.092;3.458;2023-01-28T00:19:51;5.90;99.90
21834;DHT22;11079;51.092;3.458;2023-01-28T00:22:16;6.00;99.90
21834;DHT22;11079;51.092;3.458;2023-01-28T00:24:42;5.90;99.90
21834;DHT22;11079;51.092;3.458;2023-01-28T00:27:08;5.90;99.90
21834;DHT22;11079;51.092;3.458;2023-01-28T00:29:33;6.00;99.90
21834;DHT22;11079;51.092;3.458;2023-01-28T00:31:59;6.00;99.90
21834;DHT22;11079;51.092;3.458;2023-01-28T00:34:24;5.90;99.90
21834;DHT22;11079;51.092;3.458;2023-01-28T00:36:50;6.00;99.90
21834;DHT22;11079;51.092;3.458;2023-01-28T00:39:23;5.90;99.90
21834;DHT22;11079;51.092;3.458;2023-01-28T00:41:50;6.00;99.90
21834;DHT22;11079;51.092;3.458;2023-01-28T00:44:17;6.00;99.90
21834;DHT22;11079;51.092;3.458;2023-01-28T00:46:43;5.80;99.90
21834;DHT22;11079;51.092;3.458;2023-01-28T00:49:08;5.80;99.90
21834;DHT22;11079;51.092;3.458;2023-01-28T00:51:34;5.90;99.90
21834;DHT22;11079;51.092;3.458;2023-01-28T00:54:00;5.90;99.90
21834;DHT22;11079;51.092;3.458;2023-01-28T00:56:26;5.70;99.90
21834;DHT22;11079;51.092;3.458;2023-01-28T00:58:51;5.90;99.90
21834;DHT22;11079;51.092;3.458;2023-01-28T01:01:20;6.00;99.90
21834;DHT22;11079;51.092;3.458;2023-01-28T01:03:47;6.00;99.90
21834;DHT22;11079;51.092;3.458;2023-01-28T01:06:14;6.00;99.90
21834;DHT22;11079;51.092;3.458;2023-01-28T01:08:40;5.90;99.90
21834;DHT22;11079;51.092;3.458;2023-01-28T01:11:09;5.90;99.90
21834;DHT22;11079;51.092;3.458;2023-01-28T01:13:35;5.90;99.90
21834;DHT22;11079;51.092;3.458;2023-01-28T01:16:09;6.00;99.90
21834;DHT22;11079;51.092;3.458;2023-01-28T01:18:35;5.70;99.90
21834;DHT22;11079;51.092;3.458;2023-01-28T01:21:02;5.60;99.90
21834;DHT22;11079;51.092;3.458;2023-01-28T01:23:31;5.50;99.90
21834;DHT22;11079;51.092;3.458;2023-01-28T01:25:57;5.40;99.90
21834;DHT22;11079;51.092;3.458;2023-01-28T01:28:23;5.40;99.90
21834;DHT22;11079;51.092;3.458;2023-01-28T01:30:49;5.40;99.90
21834;DHT22;11079;51.092;3.458;2023-01-28T01:33:15;5.30;99.90
21834;DHT22;11079;51.092;3.458;2023-01-28T01:35:41;5.40;99.90
21834;DHT22;11079;51.092;3.458;2023-01-28T01:38:07;5.30;99.90
21834;DHT22;11079;51.092;3.458;2023-01-28T01:40:33;5.10;99.90
21834;DHT22;11079;51.092;3.458;2023-01-28T01:42:58;4.90;99.90
21834;DHT22;11079;51.092;3.458;2023-01-28T01:45:25;4.90;99.90
21834;DHT22;11079;51.092;3.458;2023-01-28T01:47:58;5.10;99.90
21834;DHT22;11079;51.092;3.458;2023-01-28T01:50:30;5.10;99.90
21834;DHT22;11079;51.092;3.458;2023-01-28T01:53:08;5.30;99.90
21834;DHT22;11079;51.092;3.458;2023-01-28T01:55:38;5.20;99.90
21834;DHT22;11079;51.092;3.458;2023-01-28T01:58:08;5.30;99.90
21834;DHT22;11079;51.092;3.458;2023-01-28T02:00:34;5.50;99.90
21834;DHT22;11079;51.092;3.458;2023-01-28T02:03:00;5.30;99.90
21834;DHT22;11079;51.092;3.458;2023-01-28T02:05:26;5.30;99.90
21834;DHT22;11079;51.092;3.458;2023-01-28T02:07:54;5.30;99.90
21834;DHT22;11079;51.092;3.458;2023-01-28T02:10:41;5.40;99.90
21834;DHT22;11079;51.092;3.458;2023-01-28T02:13:07;5.40;99.90
21834;DHT22;11079;51.092;3.458;2023-01-28T02:15:33;5.10;99.90
21834;DHT22;11079;51.092;3.458;2023-01-28T02:17:58;5.00;99.90
21834;DHT22;11079;51.092;3.458;2023-01-28T02:33:51;5.40;99.90
21834;DHT22;11079;51.092;3.458;2023-01-28T02:39:34;5.50;99.90
21834;DHT22;11079;51.092;3.458;2023-01-28T02:44:26;5.60;99.90
21834;DHT22;11079;51.092;3.458;2023-01-28T02:46:52;5.50;99.90
21834;DHT22;11079;51.092;3.458;2023-01-28T02:49:52;5.30;99.90
21834;DHT22;11079;51.092;3.458;2023-01-28T02:58:17;5.80;99.90
21834;DHT22;11079;51.092;3.458;2023-01-28T03:01:13;5.90;99.90
21834;DHT22;11079;51.092;3.458;2023-01-28T03:04:15;5.80;99.90
21834;DHT22;11079;51.092;3.458;2023-01-28T03:06:47;5.70;99.90
21834;DHT22;11079;51.092;3.458;2023-01-28T03:09:14;5.80;99.90
21834;DHT22;11079;51.092;3.458;2023-01-28T03:12:08;5.70;99.90
21834;DHT22;11079;51.092;3.458;2023-01-28T03:15:01;5.40;99.90
21834;DHT22;11079;51.092;3.458;2023-01-28T03:23:56;5.20;99.90
21834;DHT22;11079;51.092;3.458;2023-01-28T03:27:05;5.30;99.90
21834;DHT22;11079;51.092;3.458;2023-01-28T03:29:54;5.30;99.90
21834;DHT22;11079;51.092;3.458;2023-01-28T03:32:40;5.40;99.90
21834;DHT22;11079;51.092;3.458;2023-01-28T03:35:33;5.50;99.90
21834;DHT22;11079;51.092;3.458;2023-01-28T03:38:19;5.40;99.90
21834;DHT22;11079;51.092;3.458;2023-01-28T03:40:55;5.30;99.90
21834;DHT22;11079;51.092;3.458;2023-01-28T03:43:22;5.10;99.90
21834;DHT22;11079;51.092;3.458;2023-01-28T03:45:48;5.30;99.90
21834;DHT22;11079;51.092;3.458;2023-01-28T03:48:19;5.30;99.90
21834;DHT22;11079;51.092;3.458;2023-01-28T03:50:46;5.70;99.90
21834;DHT22;11079;51.092;3.458;2023-01-28T03:53:13;5.90;99.90
21834;DHT22;11079;51.092;3.458;2023-01-28T03:55:43;5.70;99.90
21834;DHT22;11079;51.092;3.458;2023-01-28T03:58:10;5.60;99.90
21834;DHT22;11079;51.092;3.458;2023-01-28T04:00:36;5.40;99.90
21834;DHT22;11079;51.092;3.458;2023-01-28T04:03:13;5.70;99.90
21834;DHT22;11079;51.092;3.458;2023-01-28T04:05:56;5.60;99.90
21834;DHT22;11079;51.092;3.458;2023-01-28T04:08:23;5.70;99.90
21834;DHT22;11079;51.092;3.458;2023-01-28T04:10:49;6.00;99.90
21834;DHT22;11079;51.092;3.458;2023-01-28T04:13:15;6.10;99.90
21834;DHT22;11079;51.092;3.458;2023-01-28T04:15:41;6.10;99.90
21834;DHT22;11079;51.092;3.458;2023-01-28T04:18:08;6.20;99.90
21834;DHT22;11079;51.092;3.458;2023-01-28T04:20:33;6.10;99.90
21834;DHT22;11079;51.092;3.458;2023-01-28T04:22:59;6.00;99.90
21834;DHT22;11079;51.092;3.458;2023-01-28T04:25:25;6.00;99.90
21834;DHT22;11079;51.092;3.458;2023-01-28T04:27:51;5.90;99.90
21834;DHT22;11079;51.092;3.458;2023-01-28T04:30:16;5.80;99.90
21834;DHT22;11079;51.092;3.458;2023-01-28T04:32:42;5.90;99.90
21834;DHT22;11079;51.092;3.458;2023-01-28T04:35:08;5.90;99.90
21834;DHT22;11079;51.092;3.458;2023-01-28T04:37:34;6.00;99.90
21834;DHT22;11079;51.092;3.458;2023-01-28T04:39:59;5.90;99.90
21834;DHT22;11079;51.092;3.458;2023-01-28T04:42:25;6.00;99.90
21834;DHT22;11079;51.092;3.458;2023-01-28T04:44:50;5.80;99.90
21834;DHT22;11079;51.092;3.458;2023-01-28T04:47:16;5.90;99.90
21834;DHT22;11079;51.092;3.458;2023-01-28T04:49:43;5.80;99.90
21834;DHT22;11079;51.092;3.458;2023-01-28T04:52:08;5.60;99.90
21834;DHT22;11079;51.092;3.458;2023-01-28T04:54:34;5.90;99.90
21834;DHT22;11079;51.092;3.458;2023-01-28T04:56:59;6.00;99.90
21834;DHT22;11079;51.092;3.458;2023-01-28T04:59:25;5.90;99.90
21834;DHT22;11079;51.092;3.458;2023-01-28T05:01:51;5.80;99.90
21834;DHT22;11079;51.092;3.458;2023-01-28T05:04:16;5.90;99.90
21834;DHT22;11079;51.092;3.458;2023-01-28T05:06:42;5.80;99.90
21834;DHT22;11079;51.092;3.458;2023-01-28T05:09:08;5.70;99.90
21834;DHT22;11079;51.092;3.458;2023-01-28T05:11:33;5.70;99.90
21834;DHT22;11079;51.092;3.458;2023-01-28T05:13:59;5.70;99.90
21834;DHT22;11079;51.092;3.458;2023-01-28T05:16:25;5.50;99.90
21834;DHT22;11079;51.092;3.458;2023-01-28T05:18:50;5.60;99.90
21834;DHT22;11079;51.092;3.458;2023-01-28T05:21:17;5.90;99.90
21834;DHT22;11079;51.092;3.458;2023-01-28T05:23:43;5.90;99.90
21834;DHT22;11079;51.092;3.458;2023-01-28T05:26:09;5.70;99.90
21834;DHT22;11079;51.092;3.458;2023-01-28T05:28:35;5.70;99.90
21834;DHT22;11079;51.092;3.458;2023-01-28T05:31:06;5.80;99.90
21834;DHT22;11079;51.092;3.458;2023-01-28T05:33:32;5.90;99.90
21834;DHT22;11079;51.092;3.458;2023-01-28T05:35:58;6.00;99.90
21834;DHT22;11079;51.092;3.458;2023-01-28T05:38:24;5.90;99.90
21834;DHT22;11079;51.092;3.458;2023-01-28T05:40:50;6.10;99.90
21834;DHT22;11079;51.092;3.458;2023-01-28T05:43:16;6.10;99.90
21834;DHT22;11079;51.092;3.458;2023-01-28T05:45:42;6.20;99.90
21834;DHT22;11079;51.092;3.458;2023-01-28T05:48:07;6.20;99.90
21834;DHT22;11079;51.092;3.458;2023-01-28T05:50:33;6.10;99.90
21834;DHT22;11079;51.092;3.458;2023-01-28T05:53:00;6.20;99.90
21834;DHT22;11079;51.092;3.458;2023-01-28T05:55:26;6.10;99.90
21834;DHT22;11079;51.092;3.458;2023-01-28T05:57:51;5.90;99.90
21834;DHT22;11079;51.092;3.458;2023-01-28T06:00:17;5.90;99.90
21834;DHT22;11079;51.092;3.458;2023-01-28T06:02:43;5.80;99.90
21834;DHT22;11079;51.092;3.458;2023-01-28T06:05:09;5.90;99.90
21834;DHT22;11079;51.092;3.458;2023-01-28T06:07:35;5.70;99.90
21834;DHT22;11079;51.092;3.458;2023-01-28T06:10:00;5.60;99.90
21834;DHT22;11079;51.092;3.458;2023-01-28T06:12:26;5.80;99.90
21834;DHT22;11079;51.092;3.458;2023-01-28T06:14:52;5.90;99.90
21834;DHT22;11079;51.092;3.458;2023-01-28T06:17:18;5.90;99.90
21834;DHT22;11079;51.092;3.458;2023-01-28T06:19:43;5.90;99.90
21834;DHT22;11079;51.092;3.458;2023-01-28T06:22:09;5.80;99.90
21834;DHT22;11079;51.092;3.458;2023-01-28T06:24:35;5.60;99.90
21834;DHT22;11079;51.092;3.458;2023-01-28T06:27:00;5.60;99.90
21834;DHT22;11079;51.092;3.458;2023-01-28T06:29:26;5.60;99.90
21834;DHT22;11079;51.092;3.458;2023-01-28T06:31:52;5.80;99.90
21834;DHT22;11079;51.092;3.458;2023-01-28T06:34:18;5.90;99.90
21834;DHT22;11079;51.092;3.458;2023-01-28T06:36:44;5.90;99.90
21834;DHT22;11079;51.092;3.458;2023-01-28T06:39:11;5.80;99.90
21834;DHT22;11079;51.092;3.458;2023-01-28T06:41:36;5.90;99.90
21834;DHT22;11079;51.092;3.458;2023-01-28T06:44:02;6.00;99.90
21834;DHT22;11079;51.092;3.458;2023-01-28T06:46:28;6.10;99.90
21834;DHT22;11079;51.092;3.458;2023-01-28T06:48:53;6.20;99.90
21834;DHT22;11079;51.092;3.458;2023-01-28T06:51:19;6.10;99.90
21834;DHT22;11079;51.092;3.458;2023-01-28T06:53:45;6.00;99.90
21834;DHT22;11079;51.092;3.458;2023-01-28T06:56:10;6.10;99.90
21834;DHT22;11079;51.092;3.458;2023-01-28T06:58:36;6.00;99.90
21834;DHT22;11079;51.092;3.458;2023-01-28T07:01:01;6.00;99.90
21834;DHT22;11079;51.092;3.458;2023-01-28T07:03:28;6.10;99.90
21834;DHT22;11079;51.092;3.458;2023-01-28T07:05:54;6.10;99.90
21834;DHT22;11079;51.092;3.458;2023-01-28T07:08:20;6.00;99.90
21834;DHT22;11079;51.092;3.458;2023-01-28T07:10:46;6.20;99.90
21834;DHT22;11079;51.092;3.458;2023-01-28T07:13:11;6.10;99.90
21834;DHT22;11079;51.092;3.458;2023-01-28T07:15:37;6.10;99.90
21834;DHT22;11079;51.092;3.458;2023-01-28T07:18:03;6.10;99.90
21834;DHT22;11079;51.092;3.458;2023-01-28T07:20:29;6.00;99.90
21834;DHT22;11079;51.092;3.458;2023-01-28T07:22:54;6.00;99.90
21834;DHT22;11079;51.092;3.458;2023-01-28T07:25:20;6.00;99.90
21834;DHT22;11079;51.092;3.458;2023-01-28T07:27:47;6.10;99.90
21834;DHT22;11079;51.092;3.458;2023-01-28T07:30:14;6.10;99.90
21834;DHT22;11079;51.092;3.458;2023-01-28T07:32:39;6.10;99.90
21834;DHT22;11079;51.092;3.458;2023-01-28T07:35:06;6.20;99.90
21834;DHT22;11079;51.092;3.458;2023-01-28T07:37:31;6.10;99.90
21834;DHT22;11079;51.092;3.458;2023-01-28T07:39:57;6.00;99.90
21834;DHT22;11079;51.092;3.458;2023-01-28T07:42:23;5.80;99.90
21834;DHT22;11079;51.092;3.458;2023-01-28T07:44:48;5.80;99.90
21834;DHT22;11079;51.092;3.458;2023-01-28T07:47:14;5.80;99.90
21834;DHT22;11079;51.092;3.458;2023-01-28T07:49:40;5.60;99.90
21834;DHT22;11079;51.092;3.458;2023-01-28T07:52:06;5.80;99.90
21834;DHT22;11079;51.092;3.458;2023-01-28T07:54:32;5.90;99.90
21834;DHT22;11079;51.092;3.458;2023-01-28T07:57:05;6.00;99.90
21834;DHT22;11079;51.092;3.458;2023-01-28T07:59:34;5.90;99.90
21834;DHT22;11079;51.092;3.458;2023-01-28T08:02:00;5.90;99.90
21834;DHT22;11079;51.092;3.458;2023-01-28T08:04:25;5.80;99.90
21834;DHT22;11079;51.092;3.458;2023-01-28T08:06:51;5.90;99.90
21834;DHT22;11079;51.092;3.458;2023-01-28T08:09:17;5.90;99.90
21834;DHT22;11079;51.092;3.458;2023-01-28T08:11:42;5.80;99.90
21834;DHT22;11079;51.092;3.458;2023-01-28T08:14:09;5.80;99.90
21834;DHT22;11079;51.092;3.458;2023-01-28T08:16:35;5.80;99.90
21834;DHT22;11079;51.092;3.458;2023-01-28T08:19:02;5.90;99.90
21834;DHT22;11079;51.092;3.458;2023-01-28T08:21:28;5.90;99.90
21834;DHT22;11079;51.092;3.458;2023-01-28T08:23:53;6.00;99.90
21834;DHT22;11079;51.092;3.458;2023-01-28T08:26:21;6.30;99.90
21834;DHT22;11079;51.092;3.458;2023-01-28T08:28:46;6.60;99.90
21834;DHT22;11079;51.092;3.458;2023-01-28T08:31:12;7.50;99.90
21834;DHT22;11079;51.092;3.458;2023-01-28T08:33:37;7.70;99.90
21834;DHT22;11079;51.092;3.458;2023-01-28T08:36:04;7.80;99.90
21834;DHT22;11079;51.092;3.458;2023-01-28T08:38:29;7.70;99.90
21834;DHT22;11079;51.092;3.458;2023-01-28T08:40:56;7.70;99.90
21834;DHT22;11079;51.092;3.458;2023-01-28T08:43:24;7.70;99.90
21834;DHT22;11079;51.092;3.458;2023-01-28T08:45:50;7.60;99.90
21834;DHT22;11079;51.092;3.458;2023-01-28T08:48:17;7.80;99.90
21834;DHT22;11079;51.092;3.458;2023-01-28T08:50:43;8.20;99.90
21834;DHT22;11079;51.092;3.458;2023-01-28T08:53:15;8.50;99.90
21834;DHT22;11079;51.092;3.458;2023-01-28T08:55:41;8.50;99.90
21834;DHT22;11079;51.092;3.458;2023-01-28T08:58:10;8.70;99.90
21834;DHT22;11079;51.092;3.458;2023-01-28T09:00:37;11.10;99.90
21834;DHT22;11079;51.092;3.458;2023-01-28T09:03:03;14.10;99.90
21834;DHT22;11079;51.092;3.458;2023-01-28T09:05:29;15.50;99.90
21834;DHT22;11079;51.092;3.458;2023-01-28T09:07:59;15.00;99.90
21834;DHT22;11079;51.092;3.458;2023-01-28T09:10:27;14.70;99.90
21834;DHT22;11079;51.092;3.458;2023-01-28T09:12:53;14.80;99.90
21834;DHT22;11079;51.092;3.458;2023-01-28T09:15:19;14.10;99.90
21834;DHT22;11079;51.092;3.458;2023-01-28T09:17:44;13.50;99.90
21834;DHT22;11079;51.092;3.458;2023-01-28T09:20:10;12.70;99.90
21834;DHT22;11079;51.092;3.458;2023-01-28T09:22:37;12.20;99.90
21834;DHT22;11079;51.092;3.458;2023-01-28T09:25:03;11.80;99.90
21834;DHT22;11079;51.092;3.458;2023-01-28T09:27:29;11.40;99.90
21834;DHT22;11079;51.092;3.458;2023-01-28T09:29:55;11.10;99.90
21834;DHT22;11079;51.092;3.458;2023-01-28T09:32:20;10.50;99.90
21834;DHT22;11079;51.092;3.458;2023-01-28T09:34:55;10.40;99.90
21834;DHT22;11079;51.092;3.458;2023-01-28T09:37:21;10.40;99.90
21834;DHT22;11079;51.092;3.458;2023-01-28T09:39:46;10.50;99.90
21834;DHT22;11079;51.092;3.458;2023-01-28T09:45:23;10.20;99.90
21834;DHT22;11079;51.092;3.458;2023-01-28T09:47:58;10.00;99.90
21834;DHT22;11079;51.092;3.458;2023-01-28T09:50:35;10.30;99.90
21834;DHT22;11079;51.092;3.458;2023-01-28T09:53:32;10.60;99.90
21834;DHT22;11079;51.092;3.458;2023-01-28T09:56:35;10.70;99.90
21834;DHT22;11079;51.092;3.458;2023-01-28T09:59:20;11.10;99.90
21834;DHT22;11079;51.092;3.458;2023-01-28T10:01:55;11.00;99.90
21834;DHT22;11079;51.092;3.458;2023-01-28T10:04:49;10.80;99.90
21834;DHT22;11079;51.092;3.458;2023-01-28T10:10:25;10.70;99.90
21834;DHT22;11079;51.092;3.458;2023-01-28T10:13:13;10.40;99.90
21834;DHT22;11079;51.092;3.458;2023-01-28T10:16:22;10.40;99.90
21834;DHT22;11079;51.092;3.458;2023-01-28T10:18:57;10.00;99.90
21834;DHT22;11079;51.092;3.458;2023-01-28T10:21:26;9.60;99.90
21834;DHT22;11079;51.092;3.458;2023-01-28T10:24:37;9.70;99.90
21834;DHT22;11079;51.092;3.458;2023-01-28T10:27:11;9.60;99.90
21834;DHT22;11079;51.092;3.458;2023-01-28T10:29:38;9.70;99.90
21834;DHT22;11079;51.092;3.458;2023-01-28T10:32:32;9.70;99.90
21834;DHT22;11079;51.092;3.458;2023-01-28T10:35:05;9.60;99.90
21834;DHT22;11079;51.092;3.458;2023-01-28T10:37:36;9.20;99.90
21834;DHT22;11079;51.092;3.458;2023-01-28T10:40:17;8.60;99.90
21834;DHT22;11079;51.092;3.458;2023-01-28T10:42:44;8.40;99.90
21834;DHT22;11079;51.092;3.458;2023-01-28T10:45:23;8.60;99.90
21834;DHT22;11079;51.092;3.458;2023-01-28T10:50:52;8.80;99.90
21834;DHT22;11079;51.092;3.458;2023-01-28T10:53:32;8.80;99.90
21834;DHT22;11079;51.092;3.458;2023-01-28T10:55:59;8.60;99.90
21834;DHT22;11079;51.092;3.458;2023-01-28T10:58:32;7.90;99.90
21834;DHT22;11079;51.092;3.458;2023-01-28T11:01:04;7.50;99.90
21834;DHT22;11079;51.092;3.458;2023-01-28T11:03:30;7.60;99.90
21834;DHT22;11079;51.092;3.458;2023-01-28T11:05:58;7.80;99.90
21834;DHT22;11079;51.092;3.458;2023-01-28T11:08:29;8.20;99.90
21834;DHT22;11079;51.092;3.458;2023-01-28T11:10:56;8.50;99.90
21834;DHT22;11079;51.092;3.458;2023-01-28T11:13:30;8.30;99.90
21834;DHT22;11079;51.092;3.458;2023-01-28T11:18:27;8.70;99.90
21834;DHT22;11079;51.092;3.458;2023-01-28T11:20:58;8.80;99.90
21834;DHT22;11079;51.092;3.458;2023-01-28T11:23:26;8.80;99.90
21834;DHT22;11079;51.092;3.458;2023-01-28T11:26:06;8.40;99.90
21834;DHT22;11079;51.092;3.458;2023-01-28T11:28:34;7.80;99.90
21834;DHT22;11079;51.092;3.458;2023-01-28T11:31:04;8.10;99.90
21834;DHT22;11079;51.092;3.458;2023-01-28T11:33:37;8.50;99.90
21834;DHT22;11079;51.092;3.458;2023-01-28T11:36:07;8.40;99.90
21834;DHT22;11079;51.092;3.458;2023-01-28T11:38:53;8.70;99.90
21834;DHT22;11079;51.092;3.458;2023-01-28T11:41:34;8.90;99.90
21834;DHT22;11079;51.092;3.458;2023-01-28T11:44:15;9.00;99.90
21834;DHT22;11079;51.092;3.458;2023-01-28T12:00:30;10.70;99.90
21834;DHT22;11079;51.092;3.458;2023-01-28T12:09:10;11.10;99.90
21834;DHT22;11079;51.092;3.458;2023-01-28T12:20:27;12.20;99.90
21834;DHT22;11079;51.092;3.458;2023-01-28T12:37:49;15.00;99.90
21834;DHT22;11079;51.092;3.458;2023-01-28T12:41:33;15.20;99.90
21834;DHT22;11079;51.092;3.458;2023-01-28T12:43:57;15.80;99.90
21834;DHT22;11079;51.092;3.458;2023-01-28T12:46:59;15.90;99.90
21834;DHT22;11079;51.092;3.458;2023-01-28T12:52:44;16.80;99.90
21834;DHT22;11079;51.092;3.458;2023-01-28T12:55:19;18.00;99.90
21834;DHT22;11079;51.092;3.458;2023-01-28T12:57:47;17.90;99.50
21834;DHT22;11079;51.092;3.458;2023-01-28T13:00:27;17.70;99.10
21834;DHT22;11079;51.092;3.458;2023-01-28T13:03:20;17.40;98.90
21834;DHT22;11079;51.092;3.458;2023-01-28T13:05:52;16.70;99.90
21834;DHT22;11079;51.092;3.458;2023-01-28T13:08:25;16.90;99.90
21834;DHT22;11079;51.092;3.458;2023-01-28T13:10:51;17.00;99.20
21834;DHT22;11079;51.092;3.458;2023-01-28T13:13:33;16.80;99.50
21834;DHT22;11079;51.092;3.458;2023-01-28T13:16:01;16.30;99.90
21834;DHT22;11079;51.092;3.458;2023-01-28T13:24:06;14.80;99.90
21834;DHT22;11079;51.092;3.458;2023-01-28T13:29:31;13.10;99.90
21834;DHT22;11079;51.092;3.458;2023-01-28T13:32:02;12.80;99.90
21834;DHT22;11079;51.092;3.458;2023-01-28T13:35:00;12.50;99.90
21834;DHT22;11079;51.092;3.458;2023-01-28T13:37:45;12.20;99.90
21834;DHT22;11079;51.092;3.458;2023-01-28T13:42:39;12.40;99.90
21834;DHT22;11079;51.092;3.458;2023-01-28T13:47:44;12.50;99.90
21834;DHT22;11079;51.092;3.458;2023-01-28T13:50:14;12.60;99.90
21834;DHT22;11079;51.092;3.458;2023-01-28T13:52:56;12.30;99.90
21834;DHT22;11079;51.092;3.458;2023-01-28T13:55:41;12.60;99.90
21834;DHT22;11079;51.092;3.458;2023-01-28T13:58:23;12.90;99.90
21834;DHT22;11079;51.092;3.458;2023-01-28T14:01:26;12.40;99.90
21834;DHT22;11079;51.092;3.458;2023-01-28T14:13:12;12.20;99.90
21834;DHT22;11079;51.092;3.458;2023-01-28T14:15:54;12.00;99.90
21834;DHT22;11079;51.092;3.458;2023-01-28T14:18:38;11.80;99.90
21834;DHT22;11079;51.092;3.458;2023-01-28T14:21:17;11.60;99.90
21834;DHT22;11079;51.092;3.458;2023-01-28T14:23:48;11.90;99.90
21834;DHT22;11079;51.092;3.458;2023-01-28T14:31:54;13.50;99.90
21834;DHT22;11079;51.092;3.458;2023-01-28T14:34:34;13.60;99.90
21834;DHT22;11079;51.092;3.458;2023-01-28T14:37:04;14.00;99.90
21834;DHT22;11079;51.092;3.458;2023-01-28T14:39:47;13.80;99.90
21834;DHT22;11079;51.092;3.458;2023-01-28T14:42:19;14.10;99.90
21834;DHT22;11079;51.092;3.458;2023-01-28T14:44:50;14.00;99.90
21834;DHT22;11079;51.092;3.458;2023-01-28T14:58:02;15.30;99.90
21834;DHT22;11079;51.092;3.458;2023-01-28T15:00:31;15.20;99.90
21834;DHT22;11079;51.092;3.458;2023-01-28T15:03:18;14.90;99.90
21834;DHT22;11079;51.092;3.458;2023-01-28T15:06:12;14.60;99.90
21834;DHT22;11079;51.092;3.458;2023-01-28T15:09:11;14.00;99.90
21834;DHT22;11079;51.092;3.458;2023-01-28T15:15:16;12.60;99.90
21834;DHT22;11079;51.092;3.458;2023-01-28T15:17:45;12.30;99.90
21834;DHT22;11079;51.092;3.458;2023-01-28T15:20:21;12.00;99.90
21834;DHT22;11079;51.092;3.458;2023-01-28T15:22:48;11.70;99.90
21834;DHT22;11079;51.092;3.458;2023-01-28T15:25:22;11.50;99.90
21834;DHT22;11079;51.092;3.458;2023-01-28T15:27:49;11.00;99.90
21834;DHT22;11079;51.092;3.458;2023-01-28T15:30:20;10.40;99.90
21834;DHT22;11079;51.092;3.458;2023-01-28T15:32:59;10.30;99.90
21834;DHT22;11079;51.092;3.458;2023-01-28T15:35:26;10.30;99.90
21834;DHT22;11079;51.092;3.458;2023-01-28T15:37:52;10.20;99.90
21834;DHT22;11079;51.092;3.458;2023-01-28T15:40:19;10.00;99.90
21834;DHT22;11079;51.092;3.458;2023-01-28T15:42:48;9.80;99.90
21834;DHT22;11079;51.092;3.458;2023-01-28T15:45:19;9.60;99.90
21834;DHT22;11079;51.092;3.458;2023-01-28T15:48:02;9.50;99.90
21834;DHT22;11079;51.092;3.458;2023-01-28T15:50:32;9.30;99.90
21834;DHT22;11079;51.092;3.458;2023-01-28T15:52:58;9.20;99.90
21834;DHT22;11079;51.092;3.458;2023-01-28T15:55:32;8.70;99.90
21834;DHT22;11079;51.092;3.458;2023-01-28T15:58:18;8.60;99.90
21834;DHT22;11079;51.092;3.458;2023-01-28T16:00:47;8.60;99.90
21834;DHT22;11079;51.092;3.458;2023-01-28T16:03:20;8.70;99.90
21834;DHT22;11079;51.092;3.458;2023-01-28T16:05:56;8.60;99.90
21834;DHT22;11079;51.092;3.458;2023-01-28T16:08:38;8.40;99.90
21834;DHT22;11079;51.092;3.458;2023-01-28T16:11:04;8.10;99.90
21834;DHT22;11079;51.092;3.458;2023-01-28T16:13:32;7.90;99.90
21834;DHT22;11079;51.092;3.458;2023-01-28T16:15:58;7.70;99.90
21834;DHT22;11079;51.092;3.458;2023-01-28T16:18:48;7.70;99.90
21834;DHT22;11079;51.092;3.458;2023-01-28T16:21:43;7.60;99.90
21834;DHT22;11079;51.092;3.458;2023-01-28T16:24:30;7.50;99.90
21834;DHT22;11079;51.092;3.458;2023-01-28T16:27:20;7.20;99.90
21834;DHT22;11079;51.092;3.458;2023-01-28T16:29:46;7.30;99.90
21834;DHT22;11079;51.092;3.458;2023-01-28T16:32:35;7.20;99.90
21834;DHT22;11079;51.092;3.458;2023-01-28T16:35:15;7.10;99.90
21834;DHT22;11079;51.092;3.458;2023-01-28T16:37:45;6.80;99.90
21834;DHT22;11079;51.092;3.458;2023-01-28T16:40:12;6.70;99.90
21834;DHT22;11079;51.092;3.458;2023-01-28T16:42:38;6.50;99.90
21834;DHT22;11079;51.092;3.458;2023-01-28T16:45:05;6.30;99.90
21834;DHT22;11079;51.092;3.458;2023-01-28T16:47:30;6.30;99.90
21834;DHT22;11079;51.092;3.458;2023-01-28T16:49:56;6.10;99.90
21834;DHT22;11079;51.092;3.458;2023-01-28T16:52:22;5.90;99.90
21834;DHT22;11079;51.092;3.458;2023-01-28T16:54:47;5.80;99.90
21834;DHT22;11079;51.092;3.458;2023-01-28T16:57:16;5.70;99.90
21834;DHT22;11079;51.092;3.458;2023-01-28T16:59:43;5.60;99.90
21834;DHT22;11079;51.092;3.458;2023-01-28T17:02:11;5.60;99.90
21834;DHT22;11079;51.092;3.458;2023-01-28T17:04:38;5.70;99.90
21834;DHT22;11079;51.092;3.458;2023-01-28T17:07:03;5.80;99.90
21834;DHT22;11079;51.092;3.458;2023-01-28T17:09:29;5.80;99.90
21834;DHT22;11079;51.092;3.458;2023-01-28T17:11:55;5.80;99.90
21834;DHT22;11079;51.092;3.458;2023-01-28T17:14:21;5.80;99.90
21834;DHT22;11079;51.092;3.458;2023-01-28T17:16:46;5.60;99.90
21834;DHT22;11079;51.092;3.458;2023-01-28T17:19:12;5.50;99.90
21834;DHT22;11079;51.092;3.458;2023-01-28T17:21:38;5.30;99.90
21834;DHT22;11079;51.092;3.458;2023-01-28T17:24:04;5.30;99.90
21834;DHT22;11079;51.092;3.458;2023-01-28T17:26:30;5.10;99.90
21834;DHT22;11079;51.092;3.458;2023-01-28T17:28:56;5.40;99.90
21834;DHT22;11079;51.092;3.458;2023-01-28T17:31:22;5.20;99.90
21834;DHT22;11079;51.092;3.458;2023-01-28T17:33:53;5.10;99.90
21834;DHT22;11079;51.092;3.458;2023-01-28T17:36:19;5.00;99.90
21834;DHT22;11079;51.092;3.458;2023-01-28T17:38:45;5.00;99.90
21834;DHT22;11079;51.092;3.458;2023-01-28T17:41:11;5.00;99.90
21834;DHT22;11079;51.092;3.458;2023-01-28T17:43:38;4.70;99.90
21834;DHT22;11079;51.092;3.458;2023-01-28T17:46:14;4.60;99.90
21834;DHT22;11079;51.092;3.458;2023-01-28T17:48:40;4.60;99.90
21834;DHT22;11079;51.092;3.458;2023-01-28T17:51:08;4.80;99.90
21834;DHT22;11079;51.092;3.458;2023-01-28T17:53:34;4.90;99.90
21834;DHT22;11079;51.092;3.458;2023-01-28T17:56:40;4.80;99.90
21834;DHT22;11079;51.092;3.458;2023-01-28T17:59:39;4.70;99.90
21834;DHT22;11079;51.092;3.458;2023-01-28T18:02:07;4.60;99.90
21834;DHT22;11079;51.092;3.458;2023-01-28T18:04:38;4.40;99.90
21834;DHT22;11079;51.092;3.458;2023-01-28T18:07:04;4.40;99.90
21834;DHT22;11079;51.092;3.458;2023-01-28T18:09:43;4.40;99.90
21834;DHT22;11079;51.092;3.458;2023-01-28T18:12:12;4.50;99.90
21834;DHT22;11079;51.092;3.458;2023-01-28T18:14:38;4.40;99.90
21834;DHT22;11079;51.092;3.458;2023-01-28T18:17:06;4.40;99.90